createdAt,value
2023-04-02T00:03:59.988Z,3.30
2023-04-02T00:09:17.345Z,3.53
2023-04-02T00:14:33.840Z,3.70
2023-04-02T00:20:08.197Z,3.10
2023-04-02T00:25:13.999Z,3.43
2023-04-02T00:30:16.436Z,3.47
2023-04-02T00:35:26.448Z,3.40
2023-04-02T00:40:31.659Z,3.47
2023-04-02T00:45:37.738Z,3.23
2023-04-02T00:50:42.692Z,3.20
2023-04-02T00:55:45.374Z,3.50
2023-04-02T01:00:52.144Z,3.33
2023-04-02T01:06:16.279Z,3.17
2023-04-02T01:12:01.433Z,3.13
2023-04-02T01:17:22.471Z,3.07
2023-04-02T01:22:35.206Z,3.00
2023-04-02T01:27:51.373Z,3.20
2023-04-02T01:32:54.438Z,3.43
2023-04-02T01:38:15.322Z,3.53
2023-04-02T01:43:36.263Z,3.10
2023-04-02T01:48:39.758Z,3.33
2023-04-02T01:53:42.091Z,2.77
2023-04-02T01:58:46.321Z,3.20
2023-04-02T02:03:50.856Z,3.10
2023-04-02T02:09:04.911Z,3.13
2023-04-02T02:14:34.612Z,2.97
2023-04-02T02:19:41.113Z,3.03
2023-04-02T02:24:44.172Z,3.13
2023-04-02T02:29:49.422Z,2.87
2023-04-02T02:35:26.848Z,3.00
2023-04-02T02:40:40.791Z,2.47
2023-04-02T02:45:44.522Z,2.50
2023-04-02T02:50:47.913Z,2.37
2023-04-02T02:55:55.975Z,2.70
2023-04-02T03:01:02.943Z,1.87
2023-04-02T03:06:09.359Z,2.23
2023-04-02T03:11:38.563Z,1.87
2023-04-02T03:16:49.815Z,2.10
2023-04-02T03:22:07.592Z,1.90
2023-04-02T03:27:36.438Z,1.70
2023-04-02T03:32:42.283Z,1.60
2023-04-02T03:37:50.359Z,1.37
2023-04-02T03:43:01.982Z,1.30
2023-04-02T09:29:42.477Z,1.07
